Matthew Stewart

Olheiro-Chefe - Luton Town
3 Dez 2028
Domingo
Processo

Personalidade

Adaptabilidade (9) Ambição (3) Controvérsia (13) Lealdade (8) Pressão (9) Profissionalismo (11) Espírito Esportivo (18) Temperamento (6)

Perfil

Estilo de Treinamento Democrático
Licença Nacional A
Determinação 5
Gestão de Pessoas 8
Motivação 4
Disciplina 6
Satisfação no Trabalho
100%
Fadiga
0%
Função Olheiro-Chefe
Salário 16.4K p/s
Contrato 14.03.2029

Desempenho

Comportamento Bom
Eficácia do Treinamento
51%
Desenvolvimento do Jogador
45%
Prevenção de Lesões
20%
Implementação Tática
40%

Eventos Recentes

Avaliou um jogador agora
Participou de uma reunião de recrutamento agora
Participou de uma reunião de recrutamento agora
Recomendou um alvo de transferência agora
Recomendou um alvo de transferência agora
Recomendou um alvo de transferência agora
Avaliou um jogador agora
Avaliou um jogador agora

Monitorando agora

188
Jogador Clube Status Habilidade Confiança Observado Última observação Último voto
Chimobi Igwilo Rangers International Ativo 101 / 99 40% 5 02.12.2028 -
Honest Ahanor Atalanta Ativo 145 / 141 40% 10 02.12.2028 -
Robinio Vaz Modena Ativo 128 / 129 40% 1 02.12.2028 -
Nadir Sánchez Central Córdoba SdE Ativo 97 / 101 40% 3 01.12.2028 -
Ayanda Tibe Gor Mahia Ativo 84 / 99 40% 1 01.12.2028 -
Santiago Cuellar Central Norte Ativo 94 / 86 40% 1 01.12.2028 -
Alex Verón Vélez Ativo 111 / 121 40% 3 29.11.2028 -
Nupe Godstime Bayelsa United Ativo 96 / 90 40% 2 29.11.2028 -
Joseph Abah Remo Stars Ativo 97 / 83 40% 1 29.11.2028 -
Christos Mouzakitis Hull City Ativo 137 / 154 40% 9 28.11.2028 -
Santiago Segovia Rosario Central Ativo 108 / 126 40% 2 28.11.2028 -
Harry Gray Harrogate Town Ativo 135 / 140 40% 1 28.11.2028 -
Trey Nyoni Rotherham United Ativo 142 / 149 40% 4 27.11.2028 -
Tiziano Cabrera Central Norte Ativo 95 / 102 40% 1 27.11.2028 -
Idris Ajiya Nasarawa United Ativo 81 / 103 40% 1 23.11.2028 -
Musa Malik Ikorodu City Ativo 89 / 104 40% 3 21.11.2028 -
Matías Arias Vélez Ativo 107 / 126 40% 1 21.11.2028 -
Lisandro Piñero Banfield Ativo 123 / 128 40% 1 20.11.2028 -
Ruben Ramos LA Galaxy Ativo 112 / 124 40% 2 19.11.2028 -
Gideon Manaseh Ikorodu City Ativo 87 / 106 40% 1 17.11.2028 -
Ayyoub Bouaddi Stoke City Ativo 159 / 163 40% 1 17.11.2028 -
Jan Bürger Northampton Town Ativo 122 / 131 40% 11 14.11.2028 -
Riquelme Thompson-Jones Accrington Stanley Ativo 107 / 130 40% 8 14.11.2028 -
Louis Page Leicester City Ativo 138 / 138 40% 1 14.11.2028 -
Drew Baiera New York City Ativo 96 / 118 40% 2 13.11.2028 -
Veljko Milosavljević Bournemouth Ativo 144 / 145 40% 1 13.11.2028 -
Josh King Newcastle United Ativo 145 / 156 40% 2 12.11.2028 -
Matías Satas Grimsby Town Ativo 101 / 111 40% 1 12.11.2028 -
Diego León Rotherham United Ativo 133 / 121 40% 1 11.11.2028 -
Jack Shorrock Port Vale Ativo 107 / 122 40% 1 11.11.2028 -
José Neto Benfica Ativo 130 / 134 40% 1 09.11.2028 -
Tyson Pearce St. Louis CITY SC Ativo 95 / 95 40% 1 09.11.2028 -
Estanislao López Colón Ativo 84 / 97 40% 1 09.11.2028 -
Felipe Pujol Vélez Ativo 110 / 117 40% 1 07.11.2028 -
Facundo Rodríguez Talleres Ativo 95 / 84 40% 1 29.08.2028 -
Omar Bautista Gerez Central Córdoba SdE Ativo 94 / 85 40% 1 29.08.2028 -
Brayan Aragón Barnsley Perdido 107 / 102 76% 1 28.08.2028 -
Reyes Cleary Bromley Relatório pronto 116 / 126 76% 1 07.08.2028 -
Tyler Fletcher Rotherham United Ativo 115 / 110 40% 5 23.06.2028 -
Luca Williams-Barnett Walsall Ativo 121 / 131 40% 1 23.06.2028 -
Ryan Kavuma-McQueen Accrington Stanley Ativo 122 / 131 40% 1 23.06.2028 -
Josh Nichols Oldham Athletic Ativo 127 / 121 40% 8 17.06.2028 -
Kiani Inge Groningen Ativo 112 / 127 40% 6 17.06.2028 -
Simone Suppa Virtus Verona Ativo 88 / 85 40% 4 30.05.2028 -
Martim Cunha Porto Ativo 107 / 123 40% 9 27.05.2028 -
Hosea Michael Remo Stars Ativo 93 / 100 40% 6 25.05.2028 -
Andrey Ivlev Nizhniy Novgorod Perdido 117 / 127 40% 4 22.05.2028 -
Joel Ezra Enyimba Ativo 94 / 89 40% 3 21.05.2028 -
Daniel Banjaqui Benfica Ativo 128 / 127 40% 9 20.05.2028 -
Giovanni Leoni Lincoln City Ativo 139 / 135 40% 8 19.05.2028 -
Abubakar Adams Aduana Stars Ativo 87 / 86 40% 1 14.05.2028 -
Nicolò Moranduzzo Renate Ativo 95 / 102 40% 1 14.05.2028 -
Jorthy Mokio ADO Den Haag Ativo 129 / 141 40% 7 02.05.2028 -
Eko Solomon Leixões Ativo 79 / 84 40% 2 01.05.2028 -
Olivier Leroux Mouscron Ativo 107 / 109 40% 9 30.04.2028 -
Miguel Figueiredo Benfica Ativo 120 / 132 40% 2 25.04.2028 -
Josh Acheampong Everton Ativo 137 / 141 40% 3 21.04.2028 -
Matvey Bardachev Zenit Ativo 109 / 125 40% 3 10.04.2028 -
Bernardo Lima Porto Ativo 108 / 123 40% 5 05.04.2028 -
Tobiáš Pališčák Zlin Ativo 107 / 100 40% 1 03.03.2028 -
Ayden Heaven Portsmouth Ativo 140 / 149 40% 1 03.03.2028 -
Colin Guske Orlando City Ativo 93 / 100 40% 3 29.02.2028 -
Zane Albarus Shrewsbury Town Ativo 93 / 105 40% 11 23.02.2028 -
Amine Boukamir Charleroi Ativo 102 / 115 40% 4 16.02.2028 -
Esquerdinha Notts County Ativo 114 / 133 40% 2 11.02.2028 -
Charlie Gray Fleetwood Town Ativo 95 / 107 40% 5 08.02.2028 -
Jonny Shore New York City Ativo 106 / 118 40% 2 08.02.2028 -
Aaron Morley Wycombe Wanderers Ativo 121 / 121 76% 1 17.01.2028 -
Snyder Brunell Seattle Sounders Ativo 98 / 102 40% 1 06.01.2028 -
Mao Hosoya Santos Ativo 134 / 135 67% 1 01.01.2028 Aprovar
Giovanni Baroni Talleres Ativo 109 / 135 40% 1 31.12.2027 -
Ibrahim Fullah Charlton Athletic Ativo 117 / 129 40% 1 31.12.2027 -
Jenson Jones Walsall Ativo 102 / 97 40% 14 02.08.2027 -
Mpho Khethang FC Diarra Ativo 81 / 79 40% 5 02.08.2027 -
Maldini Kacurri Grimsby Town Ativo 89 / 103 40% 1 02.08.2027 -
Onyeuche Ujunwa Ikorodu City Ativo 96 / 96 40% 1 19.07.2027 -
Pedro Vian Seewald Dolomiti Bellunesi Ativo 96 / 96 40% 1 05.07.2027 -
Leandro Martins Benfica Ativo 100 / 97 40% 2 22.06.2027 -
George Hoddle Cambridge United Ativo 82 / 97 40% 1 22.06.2027 -
Rhys Walters Port Vale Ativo 97 / 103 40% 1 31.05.2027 -
Ahmed Akinyele Remo Stars Ativo 99 / 111 40% 2 30.05.2027 -
Daniel Idoko Ikorodu City Ativo 92 / 91 40% 1 30.05.2027 -
Chari Giwa US Bougouni Ativo 77 / 76 40% 5 28.05.2027 -
Sascha Britschgi AC Milan Ativo 120 / 133 40% 5 28.05.2027 -
Riley Owen Stevenage Ativo 100 / 100 40% 4 26.05.2027 -
Lucas Bergvall Tottenham Ativo 154 / 151 40% 8 26.05.2027 -
Kazunari Kita Real Sociedad Ativo 96 / 106 40% 7 26.05.2027 -
Rivaldo Mkhize Black Aces Ativo 80 / 87 40% 7 22.05.2027 -
Gonçalo Oliveira Benfica Ativo 117 / 111 40% 6 22.05.2027 -
Caleb Yirenkyi Coventry City Ativo 143 / 145 40% 3 21.05.2027 -
Ezra Mayers West Ham United Ativo 112 / 129 40% 5 20.05.2027 -
Tommaso Cecotti Carpi Ativo 89 / 93 40% 3 14.05.2027 -
Teboho Mokoena Black Aces Ativo 79 / 89 40% 4 13.05.2027 -
Andrea Bertoncini Triestina Ativo 84 / 86 40% 1 12.05.2027 -
Daniel Dennis Ikorodu City Ativo 87 / 104 40% 1 09.05.2027 -
Godwin Oham Warri Wolves Ativo 91 / 83 40% 1 07.05.2027 -
Kamaldeen Atiemo Wa All Stars Ativo 101 / 103 40% 9 04.05.2027 -
Tiago Freitas Benfica Ativo 106 / 121 40% 6 03.05.2027 -
Olalekan Adeleke Remo Stars Ativo 88 / 100 40% 1 29.04.2027 -
Samuele di Benedetto Twente Ativo 111 / 128 40% 4 20.04.2027 -
Afriyie Sulemana WAFA Ativo 97 / 92 40% 4 16.04.2027 -
Edwin Asamoah Berekum Chelsea Ativo 84 / 91 40% 6 14.04.2027 -
Ahmed Zaki Masr El Makasa Ativo 79 / 90 40% 1 08.04.2027 -
David Ozoh Derby County Ativo 126 / 117 40% 4 06.04.2027 -
Alessandro Zoboletti Sambenedettese Ativo 95 / 96 40% 1 30.03.2027 -
Dean Jali Platinum Stars Ativo 92 / 109 40% 3 25.03.2027 -
Cemran Dansin Orlando Pirates Ativo 108 / 129 40% 5 20.03.2027 -
Maxim Radchenko Rostov Ativo 78 / 96 40% 1 06.03.2027 -
Samuele Diodato Lumezzane Ativo 96 / 99 40% 1 04.03.2027 -
James Dornelly Peterborough United Ativo 100 / 116 40% 1 24.02.2027 -
Mbekezeli Mbokazi Chicago Fire Ativo 132 / 117 40% 2 04.02.2027 -
Adam Randell Bristol City Ativo 130 / 136 40% 1 26.01.2027 -
Florentino Luís Ipswich Town Ativo 137 / 135 40% 1 26.01.2027 -
Kyle Wootton Stockport County Ativo 113 / 126 69% 1 18.01.2027 Aprovar
Sampson Dweh Mallorca Ativo 133 / 134 66% 1 01.01.2027 Aprovar
Dale Taylor Blackpool Ativo 114 / 120 40% 1 30.12.2026 -
Ilyas Ansah Hull City Ativo 133 / 140 40% 1 29.12.2026 -
Sam Greenwood Bristol City Ativo 119 / 118 40% 1 28.12.2026 -
Joshua Zirkzee Manchester United Ativo 140 / 152 40% 1 28.12.2026 -
Wandile Duba ASO Chlef Ativo 107 / 106 40% 1 27.12.2026 -
Armstrong Oko-Flex Levski Ativo 123 / 114 40% 1 26.12.2026 -
Jesus Ferreira Seattle Sounders Ativo 135 / 122 40% 3 23.12.2026 -
Tadeo Allende Inter Miami CF Ativo 122 / 128 40% 3 22.12.2026 -
Evidence Makgopa Orlando Pirates Ativo 114 / 126 40% 3 18.12.2026 -
Eddie Nketiah Crystal Palace Ativo 141 / 136 40% 3 17.12.2026 -
Kévin Denkey FC Cincinnati Ativo 126 / 128 40% 5 15.12.2026 -
Talles Magno New York City Ativo 121 / 121 40% 5 15.12.2026 -
Joe Gelhardt Hull City Ativo 126 / 124 40% 2 15.12.2026 -
Malik Mothersille Stockport County Ativo 112 / 104 40% 1 14.12.2026 -
Marcelo Allende Mamelodi Sundowns Ativo 129 / 126 40% 2 12.12.2026 -
Yeangel Montero Naxxar Lions Ativo 103 / 96 40% 1 12.12.2026 -
Reda Khadra Qarabag Ativo 125 / 126 40% 1 12.12.2026 -
Stephen Amankona Aduana Stars Ativo 100 / 82 40% 1 10.12.2026 -
Erick Dolly Black Aces Ativo 115 / 116 40% 4 09.12.2026 -
David Da Costa Portland Timbers Ativo 122 / 122 40% 1 08.12.2026 -
Max Bird Birmingham Ativo 128 / 129 40% 1 08.12.2026 -
Diego Luna Real Salt Lake Ativo 123 / 116 40% 1 08.12.2026 -
Sorba Thomas Stoke City Ativo 134 / 127 40% 2 04.12.2026 -
Tyrese Campbell Sheffield United Ativo 132 / 128 40% 3 02.12.2026 -
Bongani Zungu Ajax Cape Town Ativo 134 / 128 40% 5 02.12.2026 -
Ali Ahmed Norwich City Ativo 117 / 131 40% 2 02.12.2026 -
Marezi Portsmouth Ativo 114 / 116 40% 1 29.11.2026 -
Etiosa Ighodaro Kaizer Chiefs Ativo 98 / 108 40% 2 28.11.2026 -
Sota Kitano Red Bull Salzburg Ativo 123 / 128 40% 1 27.11.2026 Mais informações
Scott Twine Bristol City Ativo 124 / 114 40% 1 24.11.2026 -
Jack McGlynn Stoke City Ativo 134 / 128 40% 1 23.11.2026 -
Paschal Durugbor El Dakhleya Ativo 94 / 83 40% 1 21.11.2026 -
Oswin Appollis Orlando Pirates Ativo 111 / 115 40% 3 19.11.2026 -
Jason Knight Bristol City Ativo 130 / 118 40% 1 14.11.2026 -
Antony Portland Timbers Ativo 137 / 144 40% 2 12.11.2026 -
Yousef Salech Cardiff City Ativo 122 / 130 40% 1 12.11.2026 -
Iván Angulo Orlando City Ativo 121 / 136 40% 1 10.11.2026 -
Alhassan Yusuf New England Revolution Ativo 123 / 136 40% 1 10.11.2026 -
Martín Ojeda Orlando City Ativo 133 / 140 40% 4 09.11.2026 -
Zach Ryan Ismaily Ativo 98 / 95 40% 1 09.11.2026 -
Santiago Rodríguez Columbus Crew Ativo 115 / 139 40% 2 07.11.2026 -
Jens Petter Hauge Bodo/Glimt Ativo 141 / 139 40% 1 06.11.2026 -
Bradley Zwane SuperSport United Ativo 118 / 119 40% 1 06.11.2026 -
Cheikh Sabaly Vancouver Whitecaps Ativo 131 / 113 40% 3 04.11.2026 -
Thalente Mbatha Orlando Pirates Ativo 121 / 100 40% 1 03.11.2026 -
Telasco Segovia Inter Miami CF Ativo 129 / 131 40% 2 28.10.2026 -
Indiana Vassilev Philadelphia Union Ativo 129 / 127 40% 2 26.10.2026 -
Jackson Muleka Konyaspor Ativo 139 / 131 40% 1 26.10.2026 -
Bénie Traoré New York City Ativo 125 / 131 40% 2 25.10.2026 -
Dejan Joveljić Seattle Sounders Ativo 141 / 124 40% 1 24.10.2026 -
Jeong Sang-Bin St. Louis CITY SC Ativo 101 / 120 40% 1 23.10.2026 -
Elias Achouri San Diego Football Club Ativo 138 / 129 40% 1 23.10.2026 -
Mohamed-Ali Cho Hull City Ativo 136 / 138 40% 3 21.10.2026 -
Wessam Abou Ali Columbus Crew Ativo 119 / 142 40% 2 20.10.2026 -
Ibrahim Aliyu Houston Dynamo Ativo 130 / 104 40% 1 19.10.2026 -
Preston Judd San Jose Earthquakes Ativo 112 / 114 40% 1 18.10.2026 -
Victor Olatunji Real Salt Lake Ativo 115 / 101 40% 2 16.10.2026 -
Timothy Tillman Los Angeles Football Club Ativo 130 / 103 40% 1 16.10.2026 -
Germán Berterame Inter Miami CF Ativo 124 / 147 40% 1 16.10.2026 -
Facundo Mura Inter Miami CF Ativo 131 / 134 40% 2 13.10.2026 -
Pedro Porro Tottenham Ativo 139 / 146 40% 1 13.10.2026 -
Igor Jesus Los Angeles Football Club Ativo 124 / 119 40% 1 11.10.2026 -
Amin Boudri Los Angeles Football Club Ativo 121 / 123 40% 1 09.10.2026 -
Ousséni Bouda San Jose Earthquakes Ativo 111 / 112 40% 1 09.10.2026 -
Duncan McGuire Houston Dynamo Ativo 130 / 111 40% 1 09.10.2026 -
Maclyn Biokpo Jenewari Rivers United Ativo 112 / 98 40% 1 08.10.2026 -
Gabriel Lekan Kun Khalifat Ativo 87 / 87 40% 1 08.10.2026 -
Alexander Aravena Portland Timbers Ativo 136 / 123 40% 1 13.09.2026 -
Jimer Fory Portland Timbers Ativo 122 / 110 40% 1 13.09.2026 -
Andrés Herrera Columbus Crew Ativo 121 / 120 40% 1 10.09.2026 -
Daniel Pereira CF Montreal Ativo 127 / 126 40% 1 10.09.2026 -
James Sands New York City Ativo 113 / 108 40% 1 09.09.2026 -
Matheus Pereira Toronto FC Ativo 124 / 114 40% 1 07.09.2026 -